Annawan, Illinois
Current Conditions -  °F | °C
As of 5:15 AM on Monday 22 Dec 2014 (Local Time) from KSQI Reporting Station
Overcast Overcast  
Wind Chill: 26°   Ceiling: 4000
Heat Index: 34°   Visibility: 7mi
Dew Point: 28°   Wind: 9mph
Humidity: 81%   Direction: 120°ESE
Pressure: 29.87"   Gusts: NA
Location:  41.4°N, 89.9°W
Report Text: KSQI 221115Z 12008KT 7SM BKN040 OVC046 01/M02 A2987 RMK AO1
Loading
Personal Weather Stations






























Interactive Weather Map New forecast layout! Learn more

10-Day Weather Forecast

Advertisements
Track Severe Weather on mobile